sensor_id;sensor_type;location;lat;lon;timestamp;P1;durP1;ratioP1;P2;durP2;ratioP2
58685;SDS011;44465;53.206;-6.106;2023-12-20T00:02:14;4.95;;;1.50;;
58685;SDS011;44465;53.206;-6.106;2023-12-20T00:04:39;3.42;;;1.38;;
58685;SDS011;44465;53.206;-6.106;2023-12-20T00:07:05;5.18;;;1.73;;
58685;SDS011;44465;53.206;-6.106;2023-12-20T00:09:30;3.08;;;1.38;;
58685;SDS011;44465;53.206;-6.106;2023-12-20T00:11:55;1.60;;;1.00;;
58685;SDS011;44465;53.206;-6.106;2023-12-20T00:14:21;2.35;;;0.88;;
58685;SDS011;44465;53.206;-6.106;2023-12-20T00:16:47;2.67;;;1.25;;
58685;SDS011;44465;53.206;-6.106;2023-12-20T00:19:12;4.80;;;1.60;;
58685;SDS011;44465;53.206;-6.106;2023-12-20T00:21:38;4.43;;;1.20;;
58685;SDS011;44465;53.206;-6.106;2023-12-20T00:24:03;2.63;;;1.45;;
58685;SDS011;44465;53.206;-6.106;2023-12-20T00:26:29;1.50;;;1.08;;
58685;SDS011;44465;53.206;-6.106;2023-12-20T00:28:55;2.05;;;0.98;;
58685;SDS011;44465;53.206;-6.106;2023-12-20T00:31:20;1.38;;;0.88;;
58685;SDS011;44465;53.206;-6.106;2023-12-20T00:33:46;2.85;;;1.33;;
58685;SDS011;44465;53.206;-6.106;2023-12-20T00:36:12;3.35;;;1.52;;
58685;SDS011;44465;53.206;-6.106;2023-12-20T00:38:37;1.65;;;0.75;;
58685;SDS011;44465;53.206;-6.106;2023-12-20T00:41:03;1.70;;;0.77;;
58685;SDS011;44465;53.206;-6.106;2023-12-20T00:43:28;2.92;;;1.10;;
58685;SDS011;44465;53.206;-6.106;2023-12-20T00:45:54;2.15;;;1.08;;
58685;SDS011;44465;53.206;-6.106;2023-12-20T00:48:20;1.85;;;1.10;;
58685;SDS011;44465;53.206;-6.106;2023-12-20T00:50:46;3.72;;;1.30;;
58685;SDS011;44465;53.206;-6.106;2023-12-20T00:53:11;1.80;;;0.85;;
58685;SDS011;44465;53.206;-6.106;2023-12-20T00:55:37;1.63;;;0.90;;
58685;SDS011;44465;53.206;-6.106;2023-12-20T00:58:02;1.70;;;1.05;;
58685;SDS011;44465;53.206;-6.106;2023-12-20T01:00:28;1.90;;;0.93;;
58685;SDS011;44465;53.206;-6.106;2023-12-20T01:02:53;1.60;;;0.93;;
58685;SDS011;44465;53.206;-6.106;2023-12-20T01:05:19;3.35;;;1.00;;
58685;SDS011;44465;53.206;-6.106;2023-12-20T01:07:44;1.55;;;1.00;;
58685;SDS011;44465;53.206;-6.106;2023-12-20T01:10:10;2.65;;;0.90;;
58685;SDS011;44465;53.206;-6.106;2023-12-20T01:12:35;2.05;;;0.95;;
58685;SDS011;44465;53.206;-6.106;2023-12-20T01:15:01;1.10;;;0.73;;
58685;SDS011;44465;53.206;-6.106;2023-12-20T01:17:27;1.42;;;1.27;;
58685;SDS011;44465;53.206;-6.106;2023-12-20T01:19:52;1.63;;;0.90;;
58685;SDS011;44465;53.206;-6.106;2023-12-20T01:22:18;1.55;;;0.70;;
58685;SDS011;44465;53.206;-6.106;2023-12-20T01:24:44;3.47;;;1.55;;
58685;SDS011;44465;53.206;-6.106;2023-12-20T01:27:09;2.17;;;1.20;;
58685;SDS011;44465;53.206;-6.106;2023-12-20T01:29:35;1.13;;;0.90;;
58685;SDS011;44465;53.206;-6.106;2023-12-20T01:32:00;0.85;;;0.60;;
58685;SDS011;44465;53.206;-6.106;2023-12-20T01:34:26;2.40;;;0.90;;
58685;SDS011;44465;53.206;-6.106;2023-12-20T01:36:51;1.23;;;0.85;;
58685;SDS011;44465;53.206;-6.106;2023-12-20T01:39:17;2.58;;;0.90;;
58685;SDS011;44465;53.206;-6.106;2023-12-20T01:41:43;2.88;;;0.90;;
58685;SDS011;44465;53.206;-6.106;2023-12-20T01:44:08;2.90;;;0.90;;
58685;SDS011;44465;53.206;-6.106;2023-12-20T01:46:34;2.65;;;0.80;;
58685;SDS011;44465;53.206;-6.106;2023-12-20T01:48:59;1.70;;;0.82;;
58685;SDS011;44465;53.206;-6.106;2023-12-20T01:51:25;2.50;;;0.90;;
58685;SDS011;44465;53.206;-6.106;2023-12-20T01:53:52;1.17;;;0.68;;
58685;SDS011;44465;53.206;-6.106;2023-12-20T01:58:46;2.92;;;1.02;;
58685;SDS011;44465;53.206;-6.106;2023-12-20T02:01:12;3.22;;;1.20;;
58685;SDS011;44465;53.206;-6.106;2023-12-20T02:03:39;0.63;;;0.60;;
58685;SDS011;44465;53.206;-6.106;2023-12-20T02:06:08;2.20;;;0.65;;
58685;SDS011;44465;53.206;-6.106;2023-12-20T02:08:34;2.10;;;0.80;;
58685;SDS011;44465;53.206;-6.106;2023-12-20T02:11:01;2.15;;;0.90;;
58685;SDS011;44465;53.206;-6.106;2023-12-20T02:13:27;1.70;;;0.93;;
58685;SDS011;44465;53.206;-6.106;2023-12-20T02:15:52;1.25;;;0.80;;
58685;SDS011;44465;53.206;-6.106;2023-12-20T02:18:19;3.17;;;1.05;;
58685;SDS011;44465;53.206;-6.106;2023-12-20T02:20:44;1.10;;;0.70;;
58685;SDS011;44465;53.206;-6.106;2023-12-20T02:23:10;1.60;;;0.88;;
58685;SDS011;44465;53.206;-6.106;2023-12-20T02:25:35;2.28;;;0.70;;
58685;SDS011;44465;53.206;-6.106;2023-12-20T02:28:01;1.55;;;0.73;;
58685;SDS011;44465;53.206;-6.106;2023-12-20T02:30:27;2.33;;;0.88;;
58685;SDS011;44465;53.206;-6.106;2023-12-20T02:32:53;1.88;;;0.77;;
58685;SDS011;44465;53.206;-6.106;2023-12-20T02:35:19;1.45;;;0.80;;
58685;SDS011;44465;53.206;-6.106;2023-12-20T02:37:44;1.75;;;1.00;;
58685;SDS011;44465;53.206;-6.106;2023-12-20T02:40:09;1.35;;;1.00;;
58685;SDS011;44465;53.206;-6.106;2023-12-20T02:42:35;0.80;;;0.60;;
58685;SDS011;44465;53.206;-6.106;2023-12-20T02:45:01;1.45;;;0.63;;
58685;SDS011;44465;53.206;-6.106;2023-12-20T02:47:26;1.65;;;0.82;;
58685;SDS011;44465;53.206;-6.106;2023-12-20T02:49:52;2.05;;;0.73;;
58685;SDS011;44465;53.206;-6.106;2023-12-20T02:52:18;1.25;;;0.70;;
58685;SDS011;44465;53.206;-6.106;2023-12-20T02:54:43;2.75;;;0.88;;
58685;SDS011;44465;53.206;-6.106;2023-12-20T02:57:09;1.52;;;0.70;;
58685;SDS011;44465;53.206;-6.106;2023-12-20T02:59:34;1.38;;;0.60;;
58685;SDS011;44465;53.206;-6.106;2023-12-20T03:01:59;2.15;;;0.68;;
58685;SDS011;44465;53.206;-6.106;2023-12-20T03:04:25;0.57;;;0.55;;
58685;SDS011;44465;53.206;-6.106;2023-12-20T03:06:50;1.80;;;0.60;;
58685;SDS011;44465;53.206;-6.106;2023-12-20T03:09:16;1.13;;;0.60;;
58685;SDS011;44465;53.206;-6.106;2023-12-20T03:11:41;1.75;;;0.80;;
58685;SDS011;44465;53.206;-6.106;2023-12-20T03:14:07;1.70;;;0.60;;
58685;SDS011;44465;53.206;-6.106;2023-12-20T03:16:32;0.85;;;0.47;;
58685;SDS011;44465;53.206;-6.106;2023-12-20T03:18:58;0.50;;;0.50;;
58685;SDS011;44465;53.206;-6.106;2023-12-20T03:21:23;1.25;;;0.52;;
58685;SDS011;44465;53.206;-6.106;2023-12-20T03:23:49;1.88;;;0.60;;
58685;SDS011;44465;53.206;-6.106;2023-12-20T03:26:14;1.92;;;0.70;;
58685;SDS011;44465;53.206;-6.106;2023-12-20T03:28:40;1.33;;;0.70;;
58685;SDS011;44465;53.206;-6.106;2023-12-20T03:31:05;1.10;;;0.50;;
58685;SDS011;44465;53.206;-6.106;2023-12-20T03:33:31;1.40;;;0.82;;
58685;SDS011;44465;53.206;-6.106;2023-12-20T03:35:56;1.70;;;0.70;;
58685;SDS011;44465;53.206;-6.106;2023-12-20T03:38:21;0.43;;;0.43;;
58685;SDS011;44465;53.206;-6.106;2023-12-20T03:40:49;2.05;;;0.52;;
58685;SDS011;44465;53.206;-6.106;2023-12-20T03:43:15;0.93;;;0.52;;
58685;SDS011;44465;53.206;-6.106;2023-12-20T03:45:41;0.77;;;0.60;;
58685;SDS011;44465;53.206;-6.106;2023-12-20T03:48:07;1.85;;;0.75;;
58685;SDS011;44465;53.206;-6.106;2023-12-20T03:50:32;1.27;;;0.57;;
58685;SDS011;44465;53.206;-6.106;2023-12-20T03:52:58;1.63;;;0.70;;
58685;SDS011;44465;53.206;-6.106;2023-12-20T03:55:23;1.65;;;0.55;;
58685;SDS011;44465;53.206;-6.106;2023-12-20T03:57:49;0.85;;;0.68;;
58685;SDS011;44465;53.206;-6.106;2023-12-20T04:00:14;1.45;;;0.50;;
58685;SDS011;44465;53.206;-6.106;2023-12-20T04:02:40;1.30;;;0.50;;
58685;SDS011;44465;53.206;-6.106;2023-12-20T04:05:07;1.80;;;0.47;;
58685;SDS011;44465;53.206;-6.106;2023-12-20T04:07:33;2.28;;;0.50;;
58685;SDS011;44465;53.206;-6.106;2023-12-20T04:10:00;0.47;;;0.38;;
58685;SDS011;44465;53.206;-6.106;2023-12-20T04:12:25;3.17;;;0.80;;
58685;SDS011;44465;53.206;-6.106;2023-12-20T04:14:52;1.17;;;0.57;;
58685;SDS011;44465;53.206;-6.106;2023-12-20T04:17:17;1.45;;;0.57;;
58685;SDS011;44465;53.206;-6.106;2023-12-20T04:19:43;1.80;;;0.52;;
58685;SDS011;44465;53.206;-6.106;2023-12-20T04:22:08;1.85;;;0.70;;
58685;SDS011;44465;53.206;-6.106;2023-12-20T04:24:34;1.70;;;0.50;;
58685;SDS011;44465;53.206;-6.106;2023-12-20T04:27:00;0.88;;;0.38;;
58685;SDS011;44465;53.206;-6.106;2023-12-20T04:29:26;1.65;;;0.73;;
58685;SDS011;44465;53.206;-6.106;2023-12-20T04:31:51;1.15;;;0.52;;
58685;SDS011;44465;53.206;-6.106;2023-12-20T04:34:17;1.23;;;0.55;;
58685;SDS011;44465;53.206;-6.106;2023-12-20T04:36:42;1.77;;;0.40;;
58685;SDS011;44465;53.206;-6.106;2023-12-20T04:39:08;0.95;;;0.47;;
58685;SDS011;44465;53.206;-6.106;2023-12-20T04:41:34;0.63;;;0.40;;
58685;SDS011;44465;53.206;-6.106;2023-12-20T04:43:59;1.08;;;0.35;;
58685;SDS011;44465;53.206;-6.106;2023-12-20T04:46:25;0.32;;;0.30;;
58685;SDS011;44465;53.206;-6.106;2023-12-20T04:48:51;0.40;;;0.40;;
58685;SDS011;44465;53.206;-6.106;2023-12-20T04:51:16;2.22;;;0.60;;
58685;SDS011;44465;53.206;-6.106;2023-12-20T04:53:42;2.13;;;0.98;;
58685;SDS011;44465;53.206;-6.106;2023-12-20T04:56:07;0.85;;;0.40;;
58685;SDS011;44465;53.206;-6.106;2023-12-20T04:58:33;0.43;;;0.43;;
58685;SDS011;44465;53.206;-6.106;2023-12-20T05:00:58;1.58;;;0.80;;
58685;SDS011;44465;53.206;-6.106;2023-12-20T05:03:24;0.45;;;0.40;;
58685;SDS011;44465;53.206;-6.106;2023-12-20T05:05:49;0.55;;;0.47;;
58685;SDS011;44465;53.206;-6.106;2023-12-20T05:08:14;0.77;;;0.43;;
58685;SDS011;44465;53.206;-6.106;2023-12-20T05:10:40;0.55;;;0.55;;
58685;SDS011;44465;53.206;-6.106;2023-12-20T05:13:06;0.57;;;0.47;;
58685;SDS011;44465;53.206;-6.106;2023-12-20T05:15:31;0.68;;;0.50;;
58685;SDS011;44465;53.206;-6.106;2023-12-20T05:17:57;0.55;;;0.55;;
58685;SDS011;44465;53.206;-6.106;2023-12-20T05:20:22;0.40;;;0.40;;
58685;SDS011;44465;53.206;-6.106;2023-12-20T05:22:48;1.95;;;0.65;;
58685;SDS011;44465;53.206;-6.106;2023-12-20T05:25:14;0.30;;;0.20;;
58685;SDS011;44465;53.206;-6.106;2023-12-20T05:27:39;0.68;;;0.43;;
58685;SDS011;44465;53.206;-6.106;2023-12-20T05:30:05;0.93;;;0.50;;
58685;SDS011;44465;53.206;-6.106;2023-12-20T05:32:31;0.50;;;0.30;;
58685;SDS011;44465;53.206;-6.106;2023-12-20T05:34:56;0.75;;;0.52;;
58685;SDS011;44465;53.206;-6.106;2023-12-20T05:37:22;1.75;;;0.52;;
58685;SDS011;44465;53.206;-6.106;2023-12-20T05:39:47;1.05;;;0.50;;
58685;SDS011;44465;53.206;-6.106;2023-12-20T05:42:13;0.63;;;0.40;;
58685;SDS011;44465;53.206;-6.106;2023-12-20T05:44:38;0.57;;;0.52;;
58685;SDS011;44465;53.206;-6.106;2023-12-20T05:47:04;1.17;;;0.75;;
58685;SDS011;44465;53.206;-6.106;2023-12-20T05:49:29;0.65;;;0.50;;
58685;SDS011;44465;53.206;-6.106;2023-12-20T05:51:55;0.55;;;0.40;;
58685;SDS011;44465;53.206;-6.106;2023-12-20T05:54:20;0.43;;;0.40;;
58685;SDS011;44465;53.206;-6.106;2023-12-20T05:56:46;0.47;;;0.40;;
58685;SDS011;44465;53.206;-6.106;2023-12-20T05:59:12;0.63;;;0.40;;
58685;SDS011;44465;53.206;-6.106;2023-12-20T06:01:37;0.85;;;0.40;;
58685;SDS011;44465;53.206;-6.106;2023-12-20T06:04:03;0.40;;;0.40;;
58685;SDS011;44465;53.206;-6.106;2023-12-20T06:06:29;0.22;;;0.22;;
58685;SDS011;44465;53.206;-6.106;2023-12-20T06:08:55;0.98;;;0.30;;
58685;SDS011;44465;53.206;-6.106;2023-12-20T06:11:21;0.93;;;0.30;;
58685;SDS011;44465;53.206;-6.106;2023-12-20T06:13:46;0.95;;;0.40;;
58685;SDS011;44465;53.206;-6.106;2023-12-20T06:16:12;1.63;;;0.40;;
58685;SDS011;44465;53.206;-6.106;2023-12-20T06:18:37;1.10;;;0.35;;
58685;SDS011;44465;53.206;-6.106;2023-12-20T06:21:03;1.15;;;0.60;;
58685;SDS011;44465;53.206;-6.106;2023-12-20T06:23:29;1.40;;;0.32;;
58685;SDS011;44465;53.206;-6.106;2023-12-20T06:25:54;0.68;;;0.50;;
58685;SDS011;44465;53.206;-6.106;2023-12-20T06:28:20;1.30;;;0.50;;
58685;SDS011;44465;53.206;-6.106;2023-12-20T06:30:45;0.40;;;0.40;;
58685;SDS011;44465;53.206;-6.106;2023-12-20T06:33:14;1.40;;;0.50;;
58685;SDS011;44465;53.206;-6.106;2023-12-20T06:35:39;1.20;;;0.43;;
58685;SDS011;44465;53.206;-6.106;2023-12-20T06:38:05;0.47;;;0.30;;
58685;SDS011;44465;53.206;-6.106;2023-12-20T06:40:30;1.17;;;0.50;;
58685;SDS011;44465;53.206;-6.106;2023-12-20T06:42:56;0.35;;;0.35;;
58685;SDS011;44465;53.206;-6.106;2023-12-20T06:45:21;1.08;;;0.43;;
58685;SDS011;44465;53.206;-6.106;2023-12-20T06:47:47;0.50;;;0.40;;
58685;SDS011;44465;53.206;-6.106;2023-12-20T06:50:12;0.98;;;0.60;;
58685;SDS011;44465;53.206;-6.106;2023-12-20T06:52:38;1.55;;;0.70;;
58685;SDS011;44465;53.206;-6.106;2023-12-20T06:55:03;1.42;;;0.35;;
58685;SDS011;44465;53.206;-6.106;2023-12-20T06:57:29;0.60;;;0.40;;
58685;SDS011;44465;53.206;-6.106;2023-12-20T06:59:55;0.40;;;0.28;;
58685;SDS011;44465;53.206;-6.106;2023-12-20T07:02:21;0.57;;;0.40;;
58685;SDS011;44465;53.206;-6.106;2023-12-20T07:04:47;0.30;;;0.30;;
58685;SDS011;44465;53.206;-6.106;2023-12-20T07:07:13;0.30;;;0.30;;
58685;SDS011;44465;53.206;-6.106;2023-12-20T07:09:38;0.82;;;0.45;;
58685;SDS011;44465;53.206;-6.106;2023-12-20T07:12:04;1.25;;;0.50;;
58685;SDS011;44465;53.206;-6.106;2023-12-20T07:14:29;1.70;;;0.40;;
58685;SDS011;44465;53.206;-6.106;2023-12-20T07:16:55;0.73;;;0.50;;
58685;SDS011;44465;53.206;-6.106;2023-12-20T07:19:20;0.52;;;0.35;;
58685;SDS011;44465;53.206;-6.106;2023-12-20T07:21:46;0.65;;;0.40;;
58685;SDS011;44465;53.206;-6.106;2023-12-20T07:24:11;0.70;;;0.50;;
58685;SDS011;44465;53.206;-6.106;2023-12-20T07:26:37;0.75;;;0.30;;
58685;SDS011;44465;53.206;-6.106;2023-12-20T07:29:03;0.35;;;0.35;;
58685;SDS011;44465;53.206;-6.106;2023-12-20T07:31:29;0.30;;;0.30;;
58685;SDS011;44465;53.206;-6.106;2023-12-20T07:33:54;0.77;;;0.38;;
58685;SDS011;44465;53.206;-6.106;2023-12-20T07:36:20;0.45;;;0.30;;
58685;SDS011;44465;53.206;-6.106;2023-12-20T07:38:46;0.70;;;0.47;;
58685;SDS011;44465;53.206;-6.106;2023-12-20T07:41:12;0.75;;;0.52;;
58685;SDS011;44465;53.206;-6.106;2023-12-20T07:43:38;0.90;;;0.22;;
58685;SDS011;44465;53.206;-6.106;2023-12-20T07:46:10;0.30;;;0.30;;
58685;SDS011;44465;53.206;-6.106;2023-12-20T07:48:35;0.30;;;0.30;;
58685;SDS011;44465;53.206;-6.106;2023-12-20T07:51:01;0.85;;;0.28;;
58685;SDS011;44465;53.206;-6.106;2023-12-20T07:53:27;1.02;;;0.38;;
58685;SDS011;44465;53.206;-6.106;2023-12-20T07:55:53;0.25;;;0.25;;
58685;SDS011;44465;53.206;-6.106;2023-12-20T07:58:18;0.30;;;0.28;;
58685;SDS011;44465;53.206;-6.106;2023-12-20T08:00:44;0.63;;;0.40;;
58685;SDS011;44465;53.206;-6.106;2023-12-20T08:03:09;1.23;;;0.55;;
58685;SDS011;44465;53.206;-6.106;2023-12-20T08:05:35;1.83;;;0.60;;
58685;SDS011;44465;53.206;-6.106;2023-12-20T08:08:01;1.23;;;0.50;;
58685;SDS011;44465;53.206;-6.106;2023-12-20T08:10:26;0.90;;;0.55;;
58685;SDS011;44465;53.206;-6.106;2023-12-20T08:12:54;1.35;;;0.30;;
58685;SDS011;44465;53.206;-6.106;2023-12-20T08:15:20;0.35;;;0.30;;
58685;SDS011;44465;53.206;-6.106;2023-12-20T08:17:45;1.25;;;0.40;;
58685;SDS011;44465;53.206;-6.106;2023-12-20T08:20:11;0.95;;;0.45;;
58685;SDS011;44465;53.206;-6.106;2023-12-20T08:22:36;0.70;;;0.40;;
58685;SDS011;44465;53.206;-6.106;2023-12-20T08:25:02;1.25;;;0.50;;
58685;SDS011;44465;53.206;-6.106;2023-12-20T08:27:27;0.73;;;0.50;;
58685;SDS011;44465;53.206;-6.106;2023-12-20T08:29:53;1.08;;;0.47;;
58685;SDS011;44465;53.206;-6.106;2023-12-20T08:32:18;0.63;;;0.50;;
58685;SDS011;44465;53.206;-6.106;2023-12-20T08:34:44;0.25;;;0.25;;
58685;SDS011;44465;53.206;-6.106;2023-12-20T08:37:09;0.95;;;0.50;;
58685;SDS011;44465;53.206;-6.106;2023-12-20T08:39:35;1.98;;;0.32;;
58685;SDS011;44465;53.206;-6.106;2023-12-20T08:42:00;1.02;;;0.60;;
58685;SDS011;44465;53.206;-6.106;2023-12-20T08:44:25;0.52;;;0.30;;
58685;SDS011;44465;53.206;-6.106;2023-12-20T08:46:51;2.05;;;0.73;;
58685;SDS011;44465;53.206;-6.106;2023-12-20T08:49:16;1.30;;;0.40;;
58685;SDS011;44465;53.206;-6.106;2023-12-20T08:51:42;0.40;;;0.40;;
58685;SDS011;44465;53.206;-6.106;2023-12-20T08:54:07;0.55;;;0.40;;
58685;SDS011;44465;53.206;-6.106;2023-12-20T08:56:33;1.58;;;0.80;;
58685;SDS011;44465;53.206;-6.106;2023-12-20T08:58:59;1.48;;;0.40;;
58685;SDS011;44465;53.206;-6.106;2023-12-20T09:01:25;2.58;;;0.70;;
58685;SDS011;44465;53.206;-6.106;2023-12-20T09:03:50;1.38;;;0.60;;
58685;SDS011;44465;53.206;-6.106;2023-12-20T09:06:15;2.70;;;0.75;;
58685;SDS011;44465;53.206;-6.106;2023-12-20T09:08:41;0.85;;;0.50;;
58685;SDS011;44465;53.206;-6.106;2023-12-20T09:11:06;4.45;;;0.90;;
58685;SDS011;44465;53.206;-6.106;2023-12-20T09:13:32;0.85;;;0.85;;
58685;SDS011;44465;53.206;-6.106;2023-12-20T09:15:57;4.38;;;1.95;;
58685;SDS011;44465;53.206;-6.106;2023-12-20T09:18:23;5.78;;;1.40;;
58685;SDS011;44465;53.206;-6.106;2023-12-20T09:20:49;2.45;;;0.70;;
58685;SDS011;44465;53.206;-6.106;2023-12-20T09:23:14;3.83;;;0.85;;
58685;SDS011;44465;53.206;-6.106;2023-12-20T09:25:40;2.03;;;1.05;;
58685;SDS011;44465;53.206;-6.106;2023-12-20T09:28:05;5.55;;;1.20;;
58685;SDS011;44465;53.206;-6.106;2023-12-20T09:30:31;3.53;;;1.20;;
58685;SDS011;44465;53.206;-6.106;2023-12-20T09:32:57;2.63;;;1.00;;
58685;SDS011;44465;53.206;-6.106;2023-12-20T09:35:23;2.85;;;0.90;;
58685;SDS011;44465;53.206;-6.106;2023-12-20T09:37:48;1.17;;;0.70;;
58685;SDS011;44465;53.206;-6.106;2023-12-20T09:40:14;3.03;;;1.52;;
58685;SDS011;44465;53.206;-6.106;2023-12-20T09:42:56;2.35;;;0.77;;
58685;SDS011;44465;53.206;-6.106;2023-12-20T09:45:23;2.10;;;1.02;;
58685;SDS011;44465;53.206;-6.106;2023-12-20T09:47:50;2.75;;;0.70;;
58685;SDS011;44465;53.206;-6.106;2023-12-20T09:50:18;9.52;;;1.90;;
58685;SDS011;44465;53.206;-6.106;2023-12-20T09:52:46;5.07;;;1.42;;
58685;SDS011;44465;53.206;-6.106;2023-12-20T09:55:15;8.02;;;1.85;;
58685;SDS011;44465;53.206;-6.106;2023-12-20T09:57:43;1.48;;;0.80;;
58685;SDS011;44465;53.206;-6.106;2023-12-20T10:00:09;4.68;;;1.55;;
58685;SDS011;44465;53.206;-6.106;2023-12-20T10:02:38;2.17;;;0.98;;
58685;SDS011;44465;53.206;-6.106;2023-12-20T10:05:19;3.63;;;1.05;;
58685;SDS011;44465;53.206;-6.106;2023-12-20T10:07:51;2.92;;;1.10;;
58685;SDS011;44465;53.206;-6.106;2023-12-20T10:10:16;3.83;;;1.42;;
58685;SDS011;44465;53.206;-6.106;2023-12-20T10:12:46;3.15;;;1.35;;
58685;SDS011;44465;53.206;-6.106;2023-12-20T10:15:26;13.27;;;3.00;;
58685;SDS011;44465;53.206;-6.106;2023-12-20T10:17:52;12.07;;;2.85;;
58685;SDS011;44465;53.206;-6.106;2023-12-20T10:20:17;7.95;;;2.25;;
58685;SDS011;44465;53.206;-6.106;2023-12-20T10:22:43;8.43;;;2.00;;
58685;SDS011;44465;53.206;-6.106;2023-12-20T10:25:08;9.10;;;2.33;;
58685;SDS011;44465;53.206;-6.106;2023-12-20T10:27:34;5.90;;;1.60;;
58685;SDS011;44465;53.206;-6.106;2023-12-20T10:29:59;9.55;;;2.30;;
58685;SDS011;44465;53.206;-6.106;2023-12-20T10:32:26;8.25;;;1.65;;
58685;SDS011;44465;53.206;-6.106;2023-12-20T10:34:52;10.10;;;1.92;;
58685;SDS011;44465;53.206;-6.106;2023-12-20T10:37:19;7.55;;;1.58;;
58685;SDS011;44465;53.206;-6.106;2023-12-20T10:39:49;7.55;;;1.75;;
58685;SDS011;44465;53.206;-6.106;2023-12-20T10:42:17;6.07;;;1.70;;
58685;SDS011;44465;53.206;-6.106;2023-12-20T10:44:46;9.40;;;2.15;;
58685;SDS011;44465;53.206;-6.106;2023-12-20T10:47:12;8.93;;;2.53;;
58685;SDS011;44465;53.206;-6.106;2023-12-20T10:49:38;4.57;;;1.05;;
58685;SDS011;44465;53.206;-6.106;2023-12-20T10:52:05;8.30;;;1.90;;
58685;SDS011;44465;53.206;-6.106;2023-12-20T10:54:31;6.88;;;1.75;;
58685;SDS011;44465;53.206;-6.106;2023-12-20T10:56:57;5.53;;;1.25;;
58685;SDS011;44465;53.206;-6.106;2023-12-20T10:59:23;4.15;;;1.42;;
58685;SDS011;44465;53.206;-6.106;2023-12-20T11:01:50;6.60;;;2.05;;
58685;SDS011;44465;53.206;-6.106;2023-12-20T11:04:19;5.22;;;1.45;;
58685;SDS011;44465;53.206;-6.106;2023-12-20T11:06:51;6.05;;;1.40;;
58685;SDS011;44465;53.206;-6.106;2023-12-20T11:09:25;5.30;;;1.70;;
58685;SDS011;44465;53.206;-6.106;2023-12-20T11:14:32;6.65;;;1.35;;
58685;SDS011;44465;53.206;-6.106;2023-12-20T11:17:12;5.53;;;1.40;;
58685;SDS011;44465;53.206;-6.106;2023-12-20T11:22:27;6.63;;;1.52;;
58685;SDS011;44465;53.206;-6.106;2023-12-20T11:24:58;7.30;;;1.38;;
58685;SDS011;44465;53.206;-6.106;2023-12-20T11:27:44;3.92;;;1.00;;
58685;SDS011;44465;53.206;-6.106;2023-12-20T11:30:29;2.92;;;1.40;;
58685;SDS011;44465;53.206;-6.106;2023-12-20T11:33:26;2.72;;;0.93;;
58685;SDS011;44465;53.206;-6.106;2023-12-20T11:35:56;5.57;;;1.83;;
58685;SDS011;44465;53.206;-6.106;2023-12-20T11:38:22;5.50;;;1.30;;
58685;SDS011;44465;53.206;-6.106;2023-12-20T11:40:49;2.95;;;1.02;;
58685;SDS011;44465;53.206;-6.106;2023-12-20T11:46:07;1.92;;;0.93;;
58685;SDS011;44465;53.206;-6.106;2023-12-20T11:48:37;4.53;;;1.20;;
58685;SDS011;44465;53.206;-6.106;2023-12-20T11:51:10;5.40;;;1.27;;
58685;SDS011;44465;53.206;-6.106;2023-12-20T11:53:37;3.17;;;1.38;;
58685;SDS011;44465;53.206;-6.106;2023-12-20T11:56:03;3.78;;;1.30;;
58685;SDS011;44465;53.206;-6.106;2023-12-20T11:58:29;2.22;;;1.02;;
58685;SDS011;44465;53.206;-6.106;2023-12-20T12:00:55;1.65;;;1.00;;
58685;SDS011;44465;53.206;-6.106;2023-12-20T12:03:21;2.50;;;1.30;;
58685;SDS011;44465;53.206;-6.106;2023-12-20T12:05:49;2.60;;;0.85;;
58685;SDS011;44465;53.206;-6.106;2023-12-20T12:08:15;3.97;;;1.00;;
58685;SDS011;44465;53.206;-6.106;2023-12-20T12:10:41;3.72;;;1.08;;
58685;SDS011;44465;53.206;-6.106;2023-12-20T12:13:06;2.42;;;1.00;;
58685;SDS011;44465;53.206;-6.106;2023-12-20T12:15:32;3.80;;;1.23;;
58685;SDS011;44465;53.206;-6.106;2023-12-20T12:17:57;3.05;;;1.30;;
58685;SDS011;44465;53.206;-6.106;2023-12-20T12:20:24;3.50;;;1.30;;
58685;SDS011;44465;53.206;-6.106;2023-12-20T12:23:23;3.70;;;1.30;;
58685;SDS011;44465;53.206;-6.106;2023-12-20T12:25:47;3.25;;;1.33;;
58685;SDS011;44465;53.206;-6.106;2023-12-20T12:28:13;3.03;;;0.98;;
58685;SDS011;44465;53.206;-6.106;2023-12-20T12:30:39;4.60;;;1.60;;
58685;SDS011;44465;53.206;-6.106;2023-12-20T12:33:04;5.93;;;1.38;;
58685;SDS011;44465;53.206;-6.106;2023-12-20T12:35:30;19.38;;;3.05;;
58685;SDS011;44465;53.206;-6.106;2023-12-20T12:37:56;8.50;;;1.80;;
58685;SDS011;44465;53.206;-6.106;2023-12-20T12:40:25;4.13;;;1.45;;
58685;SDS011;44465;53.206;-6.106;2023-12-20T12:42:50;3.90;;;1.45;;
58685;SDS011;44465;53.206;-6.106;2023-12-20T12:45:16;4.25;;;1.52;;
58685;SDS011;44465;53.206;-6.106;2023-12-20T12:47:41;4.95;;;1.30;;
58685;SDS011;44465;53.206;-6.106;2023-12-20T12:50:07;5.55;;;1.67;;
58685;SDS011;44465;53.206;-6.106;2023-12-20T12:52:33;3.95;;;1.40;;
58685;SDS011;44465;53.206;-6.106;2023-12-20T12:55:00;4.40;;;1.60;;
58685;SDS011;44465;53.206;-6.106;2023-12-20T12:57:25;5.78;;;1.90;;
58685;SDS011;44465;53.206;-6.106;2023-12-20T12:59:51;4.72;;;1.83;;
58685;SDS011;44465;53.206;-6.106;2023-12-20T13:02:17;3.83;;;1.67;;
58685;SDS011;44465;53.206;-6.106;2023-12-20T13:04:42;3.00;;;1.10;;
58685;SDS011;44465;53.206;-6.106;2023-12-20T13:07:08;4.35;;;1.40;;
58685;SDS011;44465;53.206;-6.106;2023-12-20T13:09:37;3.90;;;1.40;;
58685;SDS011;44465;53.206;-6.106;2023-12-20T13:12:04;2.50;;;1.05;;
58685;SDS011;44465;53.206;-6.106;2023-12-20T13:14:32;3.70;;;1.25;;
58685;SDS011;44465;53.206;-6.106;2023-12-20T13:16:59;3.90;;;1.45;;
58685;SDS011;44465;53.206;-6.106;2023-12-20T13:19:25;3.22;;;1.10;;
58685;SDS011;44465;53.206;-6.106;2023-12-20T13:21:50;5.93;;;1.02;;
58685;SDS011;44465;53.206;-6.106;2023-12-20T13:24:16;2.75;;;1.00;;
58685;SDS011;44465;53.206;-6.106;2023-12-20T13:26:41;2.28;;;1.13;;
58685;SDS011;44465;53.206;-6.106;2023-12-20T13:29:07;3.42;;;1.17;;
58685;SDS011;44465;53.206;-6.106;2023-12-20T13:31:32;1.23;;;0.77;;
58685;SDS011;44465;53.206;-6.106;2023-12-20T13:33:58;3.03;;;1.60;;
58685;SDS011;44465;53.206;-6.106;2023-12-20T13:36:23;2.67;;;0.93;;
58685;SDS011;44465;53.206;-6.106;2023-12-20T13:38:49;3.08;;;1.10;;
58685;SDS011;44465;53.206;-6.106;2023-12-20T13:41:15;3.17;;;1.15;;
58685;SDS011;44465;53.206;-6.106;2023-12-20T13:43:40;2.58;;;0.90;;
58685;SDS011;44465;53.206;-6.106;2023-12-20T13:46:06;2.05;;;0.90;;
58685;SDS011;44465;53.206;-6.106;2023-12-20T13:48:31;4.68;;;1.27;;
58685;SDS011;44465;53.206;-6.106;2023-12-20T13:50:57;3.40;;;1.17;;
58685;SDS011;44465;53.206;-6.106;2023-12-20T13:53:23;2.42;;;0.80;;
58685;SDS011;44465;53.206;-6.106;2023-12-20T13:55:48;1.95;;;0.80;;
58685;SDS011;44465;53.206;-6.106;2023-12-20T13:58:14;3.05;;;0.98;;
58685;SDS011;44465;53.206;-6.106;2023-12-20T14:00:40;3.33;;;1.38;;
58685;SDS011;44465;53.206;-6.106;2023-12-20T14:03:05;2.95;;;1.27;;
58685;SDS011;44465;53.206;-6.106;2023-12-20T14:05:31;1.83;;;1.00;;
58685;SDS011;44465;53.206;-6.106;2023-12-20T14:07:56;3.05;;;0.80;;
58685;SDS011;44465;53.206;-6.106;2023-12-20T14:10:23;2.08;;;1.20;;
58685;SDS011;44465;53.206;-6.106;2023-12-20T14:12:48;1.73;;;1.05;;
58685;SDS011;44465;53.206;-6.106;2023-12-20T14:15:14;2.05;;;0.90;;
58685;SDS011;44465;53.206;-6.106;2023-12-20T14:17:40;1.73;;;0.80;;
58685;SDS011;44465;53.206;-6.106;2023-12-20T14:20:09;1.63;;;1.30;;
58685;SDS011;44465;53.206;-6.106;2023-12-20T14:22:35;1.10;;;1.00;;
58685;SDS011;44465;53.206;-6.106;2023-12-20T14:25:01;1.98;;;1.08;;
58685;SDS011;44465;53.206;-6.106;2023-12-20T14:27:27;2.17;;;0.85;;
58685;SDS011;44465;53.206;-6.106;2023-12-20T14:29:55;2.78;;;1.02;;
58685;SDS011;44465;53.206;-6.106;2023-12-20T14:32:20;2.17;;;1.08;;
58685;SDS011;44465;53.206;-6.106;2023-12-20T14:34:46;1.73;;;0.80;;
58685;SDS011;44465;53.206;-6.106;2023-12-20T14:37:12;2.22;;;0.90;;
58685;SDS011;44465;53.206;-6.106;2023-12-20T14:39:37;2.50;;;1.00;;